createdAt,value
2018-06-15T00:02:14.043Z,99919.09
2018-06-15T00:04:41.665Z,99911.69
2018-06-15T00:07:09.514Z,99914.02
2018-06-15T00:09:37.226Z,99913.20
2018-06-15T00:12:05.808Z,99915.89
2018-06-15T00:14:33.405Z,99915.37
2018-06-15T00:17:01.424Z,99912.31
2018-06-15T00:19:30.230Z,99906.91
2018-06-15T00:21:58.432Z,99904.41
2018-06-15T00:24:26.366Z,99908.95
2018-06-15T00:26:54.750Z,99905.23
2018-06-15T00:29:22.344Z,99907.60
2018-06-15T00:31:51.117Z,99897.50
2018-06-15T00:34:18.958Z,99903.91
2018-06-15T00:36:46.541Z,99892.44
2018-06-15T00:39:16.242Z,99898.35
2018-06-15T00:41:44.802Z,99904.56
2018-06-15T00:44:12.715Z,99902.89
2018-06-15T00:46:40.385Z,99898.52
2018-06-15T00:49:08.405Z,99905.41
2018-06-15T00:51:36.382Z,99908.97
2018-06-15T00:54:03.975Z,99905.41
2018-06-15T00:56:31.750Z,99905.94
2018-06-15T00:58:59.335Z,99905.94
2018-06-15T01:01:27.215Z,99905.09
2018-06-15T01:03:55.316Z,99905.09
2018-06-15T01:06:22.994Z,99901.04
2018-06-15T01:08:50.565Z,99906.62
2018-06-15T01:11:18.940Z,99901.23
2018-06-15T01:13:46.524Z,99902.58
2018-06-15T01:16:14.113Z,99903.93
2018-06-15T01:18:41.757Z,99908.97
2018-06-15T01:21:10.100Z,99904.59
2018-06-15T01:23:37.680Z,99906.27
2018-06-15T01:26:05.255Z,99894.96
2018-06-15T01:28:33.190Z,99899.20
2018-06-15T01:31:00.786Z,99901.21
2018-06-15T01:33:28.420Z,99889.57
2018-06-15T01:35:56.024Z,99893.45
2018-06-15T01:38:23.910Z,99894.80
2018-06-15T01:40:51.490Z,99892.77
2018-06-15T01:43:19.078Z,99884.34
2018-06-15T01:45:46.689Z,99889.73
2018-06-15T01:48:14.694Z,99888.72
2018-06-15T01:50:42.258Z,99884.67
2018-06-15T01:53:09.890Z,99885.38
2018-06-15T01:55:37.484Z,99882.34
2018-06-15T01:58:05.058Z,99887.55
2018-06-15T02:00:32.671Z,99880.31
2018-06-15T02:03:00.258Z,99878.96
2018-06-15T02:05:28.146Z,99881.66
2018-06-15T02:07:56.634Z,99886.72
2018-06-15T02:10:24.255Z,99882.67
2018-06-15T02:12:51.850Z,99882.67
2018-06-15T02:15:20.600Z,99888.06
2018-06-15T02:17:48.166Z,99876.95
2018-06-15T02:20:15.780Z,99881.48
2018-06-15T02:22:43.651Z,99875.77
2018-06-15T02:25:11.226Z,99870.38
2018-06-15T02:27:38.804Z,99873.07
2018-06-15T02:30:06.690Z,99877.28
2018-06-15T02:32:34.299Z,99877.61
2018-06-15T02:35:01.867Z,99874.25
2018-06-15T02:37:29.467Z,99872.24
2018-06-15T02:39:57.346Z,99877.30
2018-06-15T02:42:26.582Z,99881.67
2018-06-15T02:44:54.172Z,99881.67
2018-06-15T02:47:21.748Z,99881.34
2018-06-15T02:49:49.599Z,99886.73
2018-06-15T02:52:17.222Z,99877.13
2018-06-15T02:54:44.787Z,99879.66
2018-06-15T02:57:16.874Z,99882.36
2018-06-15T02:59:44.510Z,99877.45
2018-06-15T03:02:12.092Z,99879.33
2018-06-15T03:04:39.675Z,99883.38
2018-06-15T03:07:07.538Z,99882.84
2018-06-15T03:09:35.136Z,99885.55
2018-06-15T03:12:02.762Z,99882.36
2018-06-15T03:14:32.010Z,99890.77
2018-06-15T03:16:59.919Z,99885.55
2018-06-15T03:19:27.520Z,99895.34
2018-06-15T03:21:56.738Z,99897.67
2018-06-15T03:24:24.350Z,99896.00
2018-06-15T03:26:52.934Z,99899.22
2018-06-15T03:29:20.614Z,99902.92
2018-06-15T03:31:49.010Z,99905.62
2018-06-15T03:34:16.578Z,99905.09
2018-06-15T03:36:44.433Z,99905.62
2018-06-15T03:39:13.088Z,99910.16
2018-06-15T03:41:40.674Z,99909.83
2018-06-15T03:44:08.754Z,99911.17
2018-06-15T03:46:37.056Z,99911.51
2018-06-15T03:49:04.629Z,99912.00
2018-06-15T03:51:32.223Z,99919.92
2018-06-15T03:54:00.120Z,99917.06
2018-06-15T03:56:28.286Z,99921.11
2018-06-15T03:58:55.919Z,99919.77
2018-06-15T04:01:24.380Z,99916.05
2018-06-15T04:03:52.551Z,99913.36
2018-06-15T04:06:24.522Z,99915.03
2018-06-15T04:08:52.157Z,99919.08
2018-06-15T04:11:20.003Z,99919.08
2018-06-15T04:13:47.570Z,99921.44
2018-06-15T04:16:15.168Z,99928.52
2018-06-15T04:18:43.039Z,99932.23
2018-06-15T04:21:10.662Z,99929.20
2018-06-15T04:23:38.236Z,99930.02
2018-06-15T04:26:06.086Z,99934.59
2018-06-15T04:28:33.689Z,99937.61
2018-06-15T04:31:01.934Z,99941.66
2018-06-15T04:33:29.774Z,99940.64
2018-06-15T04:35:58.174Z,99943.18
2018-06-15T04:38:26.372Z,99945.35
2018-06-15T04:40:54.210Z,99941.31
2018-06-15T04:43:22.399Z,99939.13
2018-06-15T04:45:49.999Z,99936.09
2018-06-15T04:48:17.890Z,99932.37
2018-06-15T04:50:45.505Z,99935.07
2018-06-15T04:53:14.253Z,99940.14
2018-06-15T04:55:44.346Z,99936.43
2018-06-15T04:58:11.966Z,99944.36
2018-06-15T05:00:39.561Z,99939.30
2018-06-15T05:03:07.502Z,99948.20
2018-06-15T05:05:35.836Z,99947.03
2018-06-15T05:08:03.415Z,99945.55
2018-06-15T05:10:31.304Z,99950.42
2018-06-15T05:12:58.901Z,99952.13
2018-06-15T05:15:26.480Z,99952.13
2018-06-15T05:17:56.306Z,99954.14
2018-06-15T05:20:23.869Z,99954.80
2018-06-15T05:22:51.450Z,99954.64
2018-06-15T05:25:19.951Z,99953.63
2018-06-15T05:27:47.522Z,99959.84
2018-06-15T05:30:15.895Z,99958.17
2018-06-15T05:32:45.090Z,99958.34
2018-06-15T05:35:13.338Z,99962.20
2018-06-15T05:37:42.340Z,99966.08
2018-06-15T05:40:10.342Z,99961.02
2018-06-15T05:42:38.265Z,99958.00
2018-06-15T05:45:05.858Z,99963.72
2018-06-15T05:47:35.119Z,99966.59
2018-06-15T05:50:02.766Z,99967.58
2018-06-15T05:52:31.238Z,99969.59
2018-06-15T05:55:02.211Z,99973.63
2018-06-15T05:57:31.254Z,99974.30
2018-06-15T05:59:58.828Z,99971.96
2018-06-15T06:02:26.670Z,99974.30
2018-06-15T06:04:54.261Z,99967.89
2018-06-15T06:07:21.824Z,99961.47
2018-06-15T06:09:49.681Z,99962.16
2018-06-15T06:12:17.265Z,99960.12
2018-06-15T06:14:44.854Z,99962.30
2018-06-15T06:17:12.697Z,99964.14
2018-06-15T06:19:44.469Z,99965.17
2018-06-15T06:22:13.997Z,99969.02
2018-06-15T06:24:41.872Z,99971.88
2018-06-15T06:27:09.502Z,99970.20
2018-06-15T06:29:37.216Z,99979.78
2018-06-15T06:32:06.932Z,99975.91
2018-06-15T06:34:34.543Z,99979.59
2018-06-15T06:37:03.711Z,99974.88
2018-06-15T06:39:33.882Z,99981.59
2018-06-15T06:42:01.482Z,99986.47
2018-06-15T06:44:29.095Z,99985.78
2018-06-15T06:46:57.002Z,99981.07
2018-06-15T06:49:24.582Z,99983.41
2018-06-15T06:51:52.148Z,99988.97
2018-06-15T06:54:20.018Z,99989.98
2018-06-15T06:56:48.242Z,99992.69
2018-06-15T06:59:16.438Z,99998.05
2018-06-15T07:01:45.130Z,99998.22
2018-06-15T07:04:12.690Z,99999.40
2018-06-15T07:06:40.273Z,100005.12
2018-06-15T07:09:08.126Z,100002.59
2018-06-15T07:11:35.760Z,100004.27
2018-06-15T07:14:03.370Z,100004.10
2018-06-15T07:16:32.131Z,100007.46
2018-06-15T07:18:59.710Z,100002.39
2018-06-15T07:21:27.356Z,100007.09
2018-06-15T07:23:58.442Z,100006.77
2018-06-15T07:26:27.290Z,100010.12
2018-06-15T07:28:56.031Z,100005.38
2018-06-15T07:31:23.910Z,99999.63
2018-06-15T07:33:51.665Z,99997.42
2018-06-15T07:36:19.257Z,99995.53
2018-06-15T07:38:47.165Z,99994.66
2018-06-15T07:41:16.386Z,99991.42
2018-06-15T07:43:44.966Z,99996.78
2018-06-15T07:46:12.873Z,99987.48
2018-06-15T07:48:40.508Z,99990.02
2018-06-15T07:51:08.094Z,99990.66
2018-06-15T07:53:36.208Z,99991.14
2018-06-15T07:56:03.800Z,99997.16
2018-06-15T07:58:31.377Z,99993.94
2018-06-15T08:00:59.345Z,99992.87
2018-06-15T08:03:28.733Z,99999.64
2018-06-15T08:05:57.238Z,99991.69
2018-06-15T08:08:25.708Z,99996.22
2018-06-15T08:10:53.917Z,99985.88
2018-06-15T08:13:22.135Z,99992.75
2018-06-15T08:15:50.713Z,99985.27
2018-06-15T08:18:18.302Z,99988.56
2018-06-15T08:20:45.859Z,99989.89
2018-06-15T08:23:14.535Z,99984.48
2018-06-15T08:25:42.750Z,99985.19
2018-06-15T08:28:10.590Z,99984.86
2018-06-15T08:30:38.469Z,99985.53
2018-06-15T08:33:06.062Z,99986.56
2018-06-15T08:35:34.503Z,99989.80
2018-06-15T08:38:02.611Z,99988.94
2018-06-15T08:40:30.447Z,99989.27
2018-06-15T08:42:58.031Z,99991.27
2018-06-15T08:45:26.920Z,99987.21
2018-06-15T08:47:54.494Z,99992.77
2018-06-15T08:50:24.076Z,99988.05
2018-06-15T08:52:52.987Z,99985.13
2018-06-15T08:55:21.338Z,99984.46
2018-06-15T08:57:49.611Z,99995.55
2018-06-15T09:00:18.380Z,99993.50
2018-06-15T09:02:46.351Z,99995.70
2018-06-15T09:05:15.317Z,99988.94
2018-06-15T09:07:43.188Z,99991.14
2018-06-15T09:10:10.785Z,99989.59
2018-06-15T09:12:38.391Z,99997.03
2018-06-15T09:15:06.250Z,99992.27
2018-06-15T09:17:34.342Z,99992.89
2018-06-15T09:20:01.947Z,99986.36
2018-06-15T09:22:29.790Z,99987.48
2018-06-15T09:24:57.372Z,99992.51
2018-06-15T09:27:25.902Z,99991.84
2018-06-15T09:29:54.438Z,99994.33
2018-06-15T09:32:22.034Z,99992.98
2018-06-15T09:34:51.344Z,99993.84
2018-06-15T09:37:18.935Z,99989.45
2018-06-15T09:39:47.158Z,99989.77
2018-06-15T09:42:15.020Z,99993.45
2018-06-15T09:44:42.595Z,99993.30
2018-06-15T09:47:10.178Z,99997.90
2018-06-15T09:49:38.125Z,99997.37
2018-06-15T09:52:05.730Z,100002.61
2018-06-15T09:54:34.209Z,99997.12
2018-06-15T09:57:02.321Z,99998.12
2018-06-15T09:59:30.737Z,99999.27
2018-06-15T10:01:58.350Z,99992.86
2018-06-15T10:04:27.074Z,99989.94
2018-06-15T10:06:54.762Z,99995.64
2018-06-15T10:09:23.219Z,99994.23
2018-06-15T10:11:52.171Z,100000.96
2018-06-15T10:14:20.378Z,100002.25
2018-06-15T10:16:48.795Z,100003.25
2018-06-15T10:19:17.280Z,99994.09
2018-06-15T10:21:44.850Z,99997.83
2018-06-15T10:24:12.418Z,99997.30
2018-06-15T10:26:42.097Z,100001.04
2018-06-15T10:29:10.302Z,100000.54
2018-06-15T10:31:41.469Z,99996.62
2018-06-15T10:34:09.673Z,99990.49
2018-06-15T10:36:37.335Z,99988.95
2018-06-15T10:39:05.559Z,99989.42
2018-06-15T10:41:34.150Z,99992.70
2018-06-15T10:44:02.285Z,99990.02
2018-06-15T10:46:29.878Z,99987.02
2018-06-15T10:48:59.020Z,99988.58
2018-06-15T10:51:26.589Z,99982.29
2018-06-15T10:53:54.925Z,99984.95
2018-06-15T10:56:22.812Z,99986.13
2018-06-15T10:58:53.691Z,99984.23
2018-06-15T11:01:23.012Z,99982.17
2018-06-15T11:03:51.590Z,99984.52
2018-06-15T11:06:19.919Z,99984.44
2018-06-15T11:08:47.504Z,99976.76
2018-06-15T11:11:16.233Z,99971.92
2018-06-15T11:13:44.816Z,99982.00
2018-06-15T11:16:12.928Z,99977.98
2018-06-15T11:18:41.447Z,99972.42
2018-06-15T11:21:09.046Z,99969.13
2018-06-15T11:23:37.396Z,99973.46
2018-06-15T11:26:07.598Z,99978.93
2018-06-15T11:28:35.787Z,99977.78
2018-06-15T11:31:04.450Z,99964.09
2018-06-15T11:33:33.352Z,99966.66
2018-06-15T11:36:02.238Z,99958.36
2018-06-15T11:38:29.816Z,99960.07
2018-06-15T11:40:57.784Z,99963.80
2018-06-15T11:43:25.453Z,99961.45
2018-06-15T11:45:53.054Z,99962.53
2018-06-15T11:48:20.955Z,99959.15
2018-06-15T11:50:49.530Z,99957.03
2018-06-15T11:53:17.103Z,99956.94
2018-06-15T11:55:45.226Z,99952.20
2018-06-15T11:58:14.574Z,99954.23
2018-06-15T12:00:42.212Z,99950.16
2018-06-15T12:03:10.117Z,99951.28
2018-06-15T12:05:39.319Z,99951.83
2018-06-15T12:08:06.889Z,99944.72
2018-06-15T12:10:34.743Z,99944.19
2018-06-15T12:13:03.222Z,99934.17
2018-06-15T12:15:32.266Z,99935.91
2018-06-15T12:18:01.054Z,99934.87
2018-06-15T12:20:29.790Z,99934.92
2018-06-15T12:22:57.516Z,99935.27
2018-06-15T12:25:28.879Z,99931.02
2018-06-15T12:27:56.490Z,99928.35
2018-06-15T12:30:24.128Z,99924.39
2018-06-15T12:32:53.298Z,99930.65
2018-06-15T12:35:22.198Z,99928.78
2018-06-15T12:37:50.734Z,99926.89
2018-06-15T12:40:18.616Z,99927.42
2018-06-15T12:42:46.430Z,99924.90
2018-06-15T12:45:15.347Z,99925.75
2018-06-15T12:47:43.972Z,99925.17
2018-06-15T12:50:12.482Z,99916.48
2018-06-15T12:52:40.810Z,99922.35
2018-06-15T12:55:09.576Z,99921.31
2018-06-15T12:57:37.502Z,99920.48
2018-06-15T13:00:06.023Z,99923.91
2018-06-15T13:02:34.062Z,99925.68
2018-06-15T13:05:01.684Z,99922.50
2018-06-15T13:07:29.270Z,99923.54
2018-06-15T13:09:57.142Z,99922.69
2018-06-15T13:12:24.698Z,99916.94
2018-06-15T13:14:52.294Z,99914.22
2018-06-15T13:17:20.151Z,99915.20
2018-06-15T13:19:47.726Z,99913.03
2018-06-15T13:22:15.333Z,99913.70
2018-06-15T13:24:43.247Z,99912.78
2018-06-15T13:27:10.808Z,99912.89
2018-06-15T13:29:38.419Z,99911.73
2018-06-15T13:32:07.856Z,99911.61
2018-06-15T13:34:36.587Z,99913.62
2018-06-15T13:37:04.219Z,99908.63
2018-06-15T13:39:32.078Z,99911.03
2018-06-15T13:41:59.662Z,99914.61
2018-06-15T13:44:27.229Z,99914.61
2018-06-15T13:46:55.106Z,99913.14
2018-06-15T13:49:22.694Z,99915.63
2018-06-15T13:51:51.886Z,99914.80
2018-06-15T13:54:20.424Z,99910.92
2018-06-15T13:56:49.272Z,99913.20
2018-06-15T14:01:50.447Z,99909.80
2018-06-15T14:04:19.438Z,99902.58
2018-06-15T14:06:47.797Z,99908.75
2018-06-15T14:09:15.650Z,99900.71
2018-06-15T14:11:47.087Z,99901.34
2018-06-15T14:14:14.669Z,99897.99
2018-06-15T14:16:44.646Z,99898.50
2018-06-15T14:19:12.222Z,99899.86
2018-06-15T14:21:39.823Z,99899.55
2018-06-15T14:24:10.099Z,99890.27
2018-06-15T14:26:42.333Z,99892.98
2018-06-15T14:29:10.823Z,99889.09
2018-06-15T14:31:43.795Z,99890.69
2018-06-15T14:34:11.410Z,99894.57
2018-06-15T14:36:39.100Z,99893.09
2018-06-15T14:39:07.151Z,99890.06
2018-06-15T14:41:35.427Z,99885.48
2018-06-15T14:44:03.011Z,99887.06
2018-06-15T14:46:32.107Z,99884.42
2018-06-15T14:48:59.689Z,99875.33
2018-06-15T14:51:27.286Z,99882.98
2018-06-15T14:53:56.066Z,99889.67
2018-06-15T14:56:23.666Z,99875.33
2018-06-15T14:58:52.071Z,99878.19
2018-06-15T15:01:21.240Z,99877.56
2018-06-15T15:03:49.406Z,99871.92
2018-06-15T15:06:18.236Z,99877.36
2018-06-15T15:08:45.836Z,99866.48
2018-06-15T15:11:14.246Z,99867.84
2018-06-15T15:13:42.385Z,99872.34
2018-06-15T15:16:10.671Z,99874.11
2018-06-15T15:18:42.419Z,99874.11
2018-06-15T15:21:10.318Z,99876.48
2018-06-15T15:23:40.526Z,99871.47
2018-06-15T15:26:08.102Z,99875.64
2018-06-15T15:28:35.966Z,99878.55
2018-06-15T15:31:03.595Z,99878.67
2018-06-15T15:33:31.209Z,99871.87
2018-06-15T15:35:59.086Z,99877.52
2018-06-15T15:38:26.699Z,99875.33
2018-06-15T15:40:54.310Z,99869.66
2018-06-15T15:43:22.172Z,99860.80
2018-06-15T15:45:49.775Z,99860.80
2018-06-15T15:48:17.364Z,99856.37
2018-06-15T15:50:45.259Z,99863.09
2018-06-15T15:53:12.839Z,99858.28
2018-06-15T15:55:40.445Z,99857.94
2018-06-15T15:58:13.230Z,99858.05
2018-06-15T16:00:41.380Z,99857.43
2018-06-15T16:03:10.586Z,99860.55
2018-06-15T16:05:39.226Z,99858.05
2018-06-15T16:08:06.821Z,99852.19
2018-06-15T16:10:38.023Z,99855.42
2018-06-15T16:13:05.863Z,99842.56
2018-06-15T16:15:33.442Z,99847.69
2018-06-15T16:18:01.007Z,99841.40
2018-06-15T16:20:29.123Z,99842.76
2018-06-15T16:22:56.706Z,99837.12
2018-06-15T16:25:25.370Z,99841.63
2018-06-15T16:27:53.828Z,99839.84
2018-06-15T16:30:21.426Z,99843.52
2018-06-15T16:32:49.034Z,99837.66
2018-06-15T16:35:16.876Z,99844.03
2018-06-15T16:37:47.651Z,99841.22
2018-06-15T16:40:16.658Z,99842.77
2018-06-15T16:42:45.186Z,99842.58
2018-06-15T16:45:14.667Z,99839.66
2018-06-15T16:47:47.319Z,99840.47
2018-06-15T16:50:16.740Z,99842.69
2018-06-15T16:52:46.712Z,99847.50
2018-06-15T16:55:15.098Z,99851.78
2018-06-15T16:57:44.676Z,99841.33
2018-06-15T17:00:12.643Z,99837.45
2018-06-15T17:02:41.857Z,99835.24
2018-06-15T17:05:10.408Z,99834.93
2018-06-15T17:07:39.633Z,99828.67
2018-06-15T17:10:07.833Z,99830.03
2018-06-15T17:12:36.712Z,99837.14
2018-06-15T17:15:06.656Z,99834.81
2018-06-15T17:17:35.813Z,99832.02
2018-06-15T17:20:04.512Z,99839.52
2018-06-15T17:22:32.317Z,99830.23
2018-06-15T17:25:00.234Z,99836.50
2018-06-15T17:27:30.619Z,99840.06
2018-06-15T17:29:59.268Z,99839.21
2018-06-15T17:32:27.558Z,99839.75
2018-06-15T17:34:55.416Z,99836.50
2018-06-15T17:37:23.836Z,99846.33
2018-06-15T17:39:52.163Z,99845.50
2018-06-15T17:42:20.046Z,99849.27
2018-06-15T17:44:50.288Z,99847.91
2018-06-15T17:47:17.850Z,99845.50
2018-06-15T17:49:47.286Z,99846.33
2018-06-15T17:52:14.919Z,99850.63
2018-06-15T17:54:42.511Z,99850.83
2018-06-15T17:57:11.219Z,99851.03
2018-06-15T17:59:39.429Z,99852.62
2018-06-15T18:02:09.015Z,99854.69
2018-06-15T18:04:38.087Z,99863.06
2018-06-15T18:07:06.288Z,99860.86
2018-06-15T18:09:36.774Z,99857.52
2018-06-15T18:12:12.583Z,99862.53
2018-06-15T18:14:41.367Z,99861.36
2018-06-15T18:17:10.315Z,99857.91
2018-06-15T18:19:40.829Z,99857.28
2018-06-15T18:22:09.213Z,99862.61
2018-06-15T18:29:50.340Z,99859.34
2018-06-15T18:32:18.710Z,99864.97
2018-06-15T18:34:48.802Z,99859.77
2018-06-15T18:37:16.599Z,99859.96
2018-06-15T18:39:45.589Z,99857.98
2018-06-15T18:42:13.454Z,99860.38
2018-06-15T18:44:41.810Z,99853.24
2018-06-15T18:47:09.379Z,99853.98
2018-06-15T18:49:39.380Z,99855.34
2018-06-15T18:52:08.103Z,99851.99
2018-06-15T18:54:36.630Z,99857.42
2018-06-15T18:57:04.525Z,99859.84
2018-06-15T18:59:32.333Z,99857.47
2018-06-15T19:02:00.846Z,99857.70
2018-06-15T19:04:30.410Z,99853.08
2018-06-15T19:07:00.778Z,99855.48
2018-06-15T19:09:29.414Z,99846.17
2018-06-15T19:11:57.315Z,99851.30
2018-06-15T19:14:25.825Z,99847.09
2018-06-15T19:16:53.617Z,99857.15
2018-06-15T19:19:22.035Z,99855.98
2018-06-15T19:21:49.630Z,99854.31
2018-06-15T19:24:17.257Z,99852.02
2018-06-15T19:26:46.156Z,99857.52
2018-06-15T19:29:13.809Z,99855.53
2018-06-15T19:31:41.593Z,99853.20
2018-06-15T19:34:09.442Z,99856.66
2018-06-15T19:36:40.695Z,99855.40
2018-06-15T19:39:08.851Z,99859.04
2018-06-15T19:41:36.780Z,99859.73
2018-06-15T19:44:04.374Z,99857.25
2018-06-15T19:46:33.602Z,99866.09
2018-06-15T19:49:01.530Z,99864.73
2018-06-15T19:51:29.138Z,99869.22
2018-06-15T19:53:56.722Z,99867.11
2018-06-15T19:56:24.607Z,99868.66
2018-06-15T19:58:52.239Z,99868.03
2018-06-15T20:01:19.848Z,99864.15
2018-06-15T20:03:49.328Z,99863.33
2018-06-15T20:06:16.934Z,99864.87
2018-06-15T20:08:45.496Z,99868.09
2018-06-15T20:11:13.397Z,99863.94
2018-06-15T20:13:42.325Z,99858.69
2018-06-15T20:16:09.906Z,99859.11
2018-06-15T20:18:40.424Z,99858.13
2018-06-15T20:21:08.638Z,99852.45
2018-06-15T20:23:38.152Z,99852.20
2018-06-15T20:26:06.276Z,99860.09
2018-06-15T20:28:33.843Z,99854.63
2018-06-15T20:31:01.550Z,99860.34
2018-06-15T20:33:29.419Z,99858.41
2018-06-15T20:35:58.530Z,99863.08
2018-06-15T20:38:26.926Z,99851.12
2018-06-15T20:40:54.774Z,99853.29
2018-06-15T20:43:22.351Z,99850.63
2018-06-15T20:45:50.667Z,99857.83
2018-06-15T20:48:18.547Z,99863.30
2018-06-15T20:50:46.149Z,99861.18
2018-06-15T20:53:15.367Z,99858.88
2018-06-15T20:55:48.202Z,99865.84
2018-06-15T20:58:16.322Z,99859.97
2018-06-15T21:00:43.937Z,99855.58
2018-06-15T21:03:11.518Z,99857.44
2018-06-15T21:05:39.318Z,99853.69
2018-06-15T21:08:08.059Z,99855.90
2018-06-15T21:10:36.542Z,99852.02
2018-06-15T21:13:04.405Z,99852.55
2018-06-15T21:15:37.578Z,99843.25
2018-06-15T21:18:05.808Z,99844.79
2018-06-15T21:20:35.774Z,99846.68
2018-06-15T21:23:04.478Z,99840.41
2018-06-15T21:25:32.758Z,99848.75
2018-06-15T21:28:01.630Z,99840.17
2018-06-15T21:30:29.478Z,99845.11
2018-06-15T21:32:57.058Z,99842.45
2018-06-15T21:35:24.630Z,99844.71
2018-06-15T21:37:53.521Z,99838.66
2018-06-15T21:40:21.978Z,99843.94
2018-06-15T21:42:50.378Z,99843.81
2018-06-15T21:45:18.276Z,99842.64
2018-06-15T21:47:45.854Z,99842.85
2018-06-15T21:50:14.468Z,99841.50
2018-06-15T21:52:43.486Z,99833.87
2018-06-15T21:55:13.211Z,99836.08
2018-06-15T21:57:48.157Z,99832.02
2018-06-15T22:00:16.074Z,99833.87
2018-06-15T22:02:45.242Z,99841.69
2018-06-15T22:05:16.504Z,99836.98
2018-06-15T22:07:44.361Z,99835.81
2018-06-15T22:10:13.364Z,99835.17
2018-06-15T22:12:42.525Z,99837.75
2018-06-15T22:15:11.111Z,99837.03
2018-06-15T22:17:39.025Z,99838.60
2018-06-15T22:20:06.617Z,99833.82
2018-06-15T22:22:34.470Z,99833.28
2018-06-15T22:25:02.352Z,99835.67
2018-06-15T22:27:30.808Z,99838.20
2018-06-15T22:29:59.377Z,99838.20
2018-06-15T22:32:30.496Z,99841.95
2018-06-15T22:34:59.012Z,99838.20
2018-06-15T22:37:27.567Z,99834.64
2018-06-15T22:39:56.455Z,99833.63
2018-06-15T22:42:24.286Z,99834.98
2018-06-15T22:44:52.152Z,99844.80
2018-06-15T22:47:21.363Z,99843.63
2018-06-15T22:49:50.944Z,99846.83
2018-06-15T22:52:19.414Z,99848.54
2018-06-15T22:54:46.975Z,99843.80
2018-06-15T22:57:15.522Z,99852.15
2018-06-15T22:59:44.259Z,99839.61
2018-06-15T23:02:12.097Z,99839.28
2018-06-15T23:04:39.650Z,99848.45
2018-06-15T23:07:10.662Z,99850.34
2018-06-15T23:09:38.517Z,99848.63
2018-06-15T23:12:07.090Z,99845.92
2018-06-15T23:14:34.678Z,99850.20
2018-06-15T23:17:02.548Z,99848.84
2018-06-15T23:19:30.118Z,99851.56
2018-06-15T23:21:57.694Z,99852.59
2018-06-15T23:24:25.759Z,99856.13
2018-06-15T23:26:53.397Z,99858.52
2018-06-15T23:29:21.004Z,99855.66
2018-06-15T23:31:49.794Z,99851.28
2018-06-15T23:34:18.268Z,99853.17
2018-06-15T23:36:46.686Z,99851.14
2018-06-15T23:39:14.533Z,99850.83
2018-06-15T23:41:42.906Z,99853.53
2018-06-15T23:44:10.476Z,99849.66
2018-06-15T23:46:38.098Z,99850.19
2018-06-15T23:49:06.651Z,99847.48
2018-06-15T23:51:34.225Z,99847.48
2018-06-15T23:54:01.808Z,99842.56
2018-06-15T23:56:29.662Z,99834.97
2018-06-15T23:58:59.618Z,99826.52
